createdAt,value
2022-12-08T00:01:13.708Z,100061.94
2022-12-08T00:03:40.954Z,100042.00
2022-12-08T00:06:41.079Z,100059.66
2022-12-08T00:09:38.663Z,100033.41
2022-12-08T00:12:07.989Z,100041.81
2022-12-08T00:14:37.649Z,100030.72
2022-12-08T00:17:06.864Z,100038.50
2022-12-08T00:19:34.290Z,100022.41
2022-12-08T00:22:01.955Z,100028.94
2022-12-08T00:24:35.104Z,100026.25
2022-12-08T00:27:02.603Z,99989.91
2022-12-08T00:29:29.781Z,100004.56
2022-12-08T00:31:57.045Z,99974.34
2022-12-08T00:34:24.350Z,100003.56
2022-12-08T00:36:51.478Z,100007.41
2022-12-08T00:39:21.768Z,99989.69
2022-12-08T00:42:08.666Z,99958.16
2022-12-08T00:44:35.687Z,99986.75
2022-12-08T00:47:02.706Z,99988.28
2022-12-08T00:49:29.743Z,99992.34
2022-12-08T00:51:57.081Z,99989.31
2022-12-08T00:54:24.157Z,99970.38
2022-12-08T00:56:51.769Z,100003.97
2022-12-08T00:59:18.832Z,99997.22
2022-12-08T01:01:46.241Z,99999.34
2022-12-08T01:04:16.223Z,100005.38
2022-12-08T01:06:44.076Z,100020.41
2022-12-08T01:09:18.217Z,100006.66
2022-12-08T01:11:45.720Z,100001.03
2022-12-08T01:14:13.649Z,100031.41
2022-12-08T01:16:41.764Z,100002.47
2022-12-08T01:19:12.351Z,99972.72
2022-12-08T01:21:40.251Z,99972.09
2022-12-08T01:24:07.810Z,100006.66
2022-12-08T01:26:34.843Z,100008.47
2022-12-08T01:29:02.161Z,99987.88
2022-12-08T01:31:29.175Z,100019.13
2022-12-08T01:33:56.635Z,100008.94
2022-12-08T01:36:29.471Z,99997.47
2022-12-08T01:39:01.113Z,99981.66
2022-12-08T01:41:31.810Z,99980.78
2022-12-08T01:44:04.217Z,100002.19
2022-12-08T01:46:33.390Z,100003.38
2022-12-08T01:49:14.922Z,99968.13
2022-12-08T01:51:59.232Z,99998.47
2022-12-08T01:54:31.092Z,99964.03
2022-12-08T01:57:34.666Z,100005.38
2022-12-08T02:00:08.844Z,100006.13
2022-12-08T02:03:04.811Z,100005.38
2022-12-08T02:05:35.292Z,99969.41
2022-12-08T02:08:07.086Z,99989.94
2022-12-08T02:10:38.118Z,99978.88
2022-12-08T02:13:09.123Z,99985.09
2022-12-08T02:16:00.662Z,99945.44
2022-12-08T02:19:22.552Z,99978.47
2022-12-08T02:22:11.461Z,99980.50
2022-12-08T02:24:59.378Z,99971.47
2022-12-08T02:27:49.428Z,99988.28
2022-12-08T02:30:39.109Z,99984.47
2022-12-08T02:34:03.530Z,99961.38
2022-12-08T02:36:42.651Z,99979.63
2022-12-08T02:39:12.594Z,99980.50
2022-12-08T02:41:53.373Z,99964.44
2022-12-08T02:44:31.883Z,99968.66
2022-12-08T02:47:08.737Z,99972.50
2022-12-08T02:49:36.173Z,99968.91
2022-12-08T02:52:27.610Z,99941.34
2022-12-08T02:55:02.281Z,99951.06
2022-12-08T02:57:51.960Z,99966.88
2022-12-08T03:00:21.991Z,99951.06
2022-12-08T03:03:07.857Z,99950.19
2022-12-08T03:05:56.787Z,99957.19
2022-12-08T03:08:38.866Z,99957.06
2022-12-08T03:11:21.446Z,99945.72
2022-12-08T03:13:58.271Z,99892.66
2022-12-08T03:16:29.496Z,99897.00
2022-12-08T03:19:15.483Z,99952.47
2022-12-08T03:21:47.208Z,99942.13
2022-12-08T03:24:17.630Z,99949.91
2022-12-08T03:26:57.180Z,99919.69
2022-12-08T03:29:24.755Z,99938.69
2022-12-08T03:32:14.455Z,99932.72
2022-12-08T03:34:44.290Z,99890.88
2022-12-08T03:37:11.265Z,99942.00
2022-12-08T03:39:38.377Z,99939.34
2022-12-08T03:42:05.400Z,99916.91
2022-12-08T03:44:32.410Z,99915.38
2022-12-08T03:46:59.493Z,99926.47
2022-12-08T03:49:26.536Z,99924.81
2022-12-08T03:51:53.514Z,99899.94
2022-12-08T03:54:20.500Z,99881.97
2022-12-08T03:56:47.605Z,99921.38
2022-12-08T03:59:14.604Z,99906.59
2022-12-08T04:01:41.608Z,99904.00
2022-12-08T04:04:08.713Z,99925.56
2022-12-08T04:06:35.832Z,99908.50
2022-12-08T04:09:02.908Z,99883.50
2022-12-08T04:11:29.813Z,99902.13
2022-12-08T04:13:56.897Z,99872.06
2022-12-08T04:16:26.648Z,99891.44
2022-12-08T04:18:54.342Z,99900.34
2022-12-08T04:21:22.099Z,99888.84
2022-12-08T04:23:49.277Z,99895.22
2022-12-08T04:26:16.822Z,99896.25
2022-12-08T04:28:44.592Z,99892.44
2022-12-08T04:31:11.861Z,99884.41
2022-12-08T04:33:38.894Z,99840.28
2022-12-08T04:36:06.851Z,99866.81
2022-12-08T04:38:34.567Z,99860.81
2022-12-08T04:41:01.839Z,99864.13
2022-12-08T04:43:28.944Z,99889.53
2022-12-08T04:45:56.362Z,99886.56
2022-12-08T04:48:23.808Z,99894.19
2022-12-08T04:50:51.860Z,99896.00
2022-12-08T04:53:21.008Z,99825.97
2022-12-08T04:55:49.765Z,99898.53
2022-12-08T04:58:18.970Z,99903.13
2022-12-08T05:00:47.620Z,99896.25
2022-12-08T05:03:15.908Z,99880.28
2022-12-08T05:05:45.606Z,99902.63
2022-12-08T05:08:12.703Z,99892.44
2022-12-08T05:10:40.500Z,99900.06
2022-12-08T05:13:07.766Z,99889.75
2022-12-08T05:15:34.737Z,99871.38
2022-12-08T05:18:01.717Z,99889.84
2022-12-08T05:20:28.743Z,99897.00
2022-12-08T05:22:59.347Z,99881.69
2022-12-08T05:25:26.827Z,99895.47
2022-12-08T05:28:01.739Z,99864.13
2022-12-08T05:30:38.801Z,99815.03
2022-12-08T05:33:06.202Z,99821.78
2022-12-08T05:35:33.212Z,99864.38
2022-12-08T05:38:00.323Z,99891.66
2022-12-08T05:40:27.321Z,99888.34
2022-12-08T05:42:54.292Z,99890.47
2022-12-08T05:45:23.786Z,99865.91
2022-12-08T05:47:50.681Z,99886.66
2022-12-08T05:50:17.670Z,99879.91
2022-12-08T05:52:44.587Z,99883.75
2022-12-08T05:55:11.592Z,99888.22
2022-12-08T05:57:38.614Z,99878.66
2022-12-08T06:00:10.981Z,99873.81
2022-12-08T06:02:45.436Z,99861.94
2022-12-08T06:05:12.943Z,99890.13
2022-12-08T06:07:41.387Z,99888.75
2022-12-08T06:10:09.200Z,99881.25
2022-12-08T06:12:38.532Z,99901.22
2022-12-08T06:15:05.940Z,99871.69
2022-12-08T06:17:33.370Z,99876.88
2022-12-08T06:20:01.165Z,99863.13
2022-12-08T06:22:36.228Z,99895.63
2022-12-08T06:25:07.296Z,99892.94
2022-12-08T06:27:36.989Z,99864.78
2022-12-08T06:30:07.292Z,99884.53
2022-12-08T06:32:34.454Z,99866.41
2022-12-08T06:35:01.709Z,99871.41
2022-12-08T06:37:29.101Z,99897.16
2022-12-08T06:39:56.934Z,99856.00
2022-12-08T06:42:43.720Z,99869.00
2022-12-08T06:45:22.123Z,99877.91
2022-12-08T06:47:51.808Z,99876.13
2022-12-08T06:50:18.839Z,99885.06
2022-12-08T06:52:56.929Z,99882.66
2022-12-08T06:58:32.958Z,99882.00
2022-12-08T07:01:11.742Z,99845.03
2022-12-08T07:03:40.004Z,99866.72
2022-12-08T07:06:07.791Z,99887.59
2022-12-08T07:08:35.820Z,99873.84
2022-12-08T07:11:08.785Z,99885.56
2022-12-08T07:13:36.348Z,99858.78
2022-12-08T07:16:09.531Z,99878.00
2022-12-08T07:18:38.016Z,99833.31
2022-12-08T07:21:07.277Z,99866.91
2022-12-08T07:23:34.997Z,99851.34
2022-12-08T07:26:04.465Z,99850.88
2022-12-08T07:28:37.008Z,99873.56
2022-12-08T07:31:05.487Z,99871.00
2022-12-08T07:33:33.700Z,99872.78
2022-12-08T07:36:04.610Z,99850.47
2022-12-08T07:38:31.994Z,99878.88
2022-12-08T07:40:59.326Z,99863.97
2022-12-08T07:43:30.672Z,99872.50
2022-12-08T07:46:19.066Z,99867.78
2022-12-08T07:49:00.437Z,99842.44
2022-12-08T07:51:31.292Z,99860.66
2022-12-08T07:53:59.094Z,99875.06
2022-12-08T07:56:27.751Z,99832.59
2022-12-08T07:58:55.908Z,99850.06
2022-12-08T08:01:37.226Z,99854.66
2022-12-08T08:04:05.937Z,99854.34
2022-12-08T08:06:34.489Z,99860.50
2022-12-08T08:09:01.543Z,99843.38
2022-12-08T08:11:28.568Z,99838.69
2022-12-08T08:13:56.847Z,99868.25
2022-12-08T08:16:24.543Z,99840.56
2022-12-08T08:18:52.238Z,99847.94
2022-12-08T08:21:44.390Z,99829.94
2022-12-08T08:24:09.671Z,99850.88
2022-12-08T08:26:37.940Z,99836.75
2022-12-08T08:29:05.019Z,99814.56
2022-12-08T08:31:32.042Z,99851.75
2022-12-08T08:34:00.769Z,99801.50
2022-12-08T08:36:27.635Z,99829.78
2022-12-08T08:38:54.643Z,99787.81
2022-12-08T08:41:25.335Z,99770.78
2022-12-08T08:44:13.688Z,99834.09
2022-12-08T08:46:42.846Z,99821.84
2022-12-08T08:49:13.871Z,99814.91
2022-12-08T08:51:43.655Z,99813.66
2022-12-08T08:54:11.486Z,99819.41
2022-12-08T08:56:42.351Z,99838.38
2022-12-08T08:59:15.769Z,99838.16
2022-12-08T09:01:53.345Z,99830.69
2022-12-08T09:04:31.704Z,99857.06
2022-12-08T09:07:00.644Z,99847.19
2022-12-08T09:09:57.045Z,99839.91
2022-12-08T09:12:31.090Z,99850.91
2022-12-08T09:15:01.892Z,99825.69
2022-12-08T09:17:31.054Z,99840.56
2022-12-08T09:19:58.075Z,99823.94
2022-12-08T09:22:25.009Z,99814.63
2022-12-08T09:24:53.516Z,99823.16
2022-12-08T09:27:21.562Z,99789.19
2022-12-08T09:29:48.673Z,99830.28
2022-12-08T09:32:15.993Z,99789.38
2022-12-08T09:34:47.610Z,99800.03
2022-12-08T09:37:18.843Z,99819.97
2022-12-08T09:39:48.702Z,99836.25
2022-12-08T09:42:45.235Z,99813.84
2022-12-08T09:45:14.246Z,99796.22
2022-12-08T09:47:47.167Z,99814.94
2022-12-08T09:50:28.082Z,99796.69
2022-12-08T09:53:09.099Z,99778.34
2022-12-08T09:55:42.682Z,99782.44
2022-12-08T09:58:26.319Z,99807.66
2022-12-08T10:00:53.896Z,99790.97
2022-12-08T10:03:31.904Z,99792.94
2022-12-08T10:06:13.818Z,99805.19
2022-12-08T10:08:55.582Z,99800.44
2022-12-08T10:11:53.568Z,99786.94
2022-12-08T10:17:55.415Z,99590.91
2022-12-08T10:23:39.684Z,99807.88
2022-12-08T10:26:12.535Z,99810.13
2022-12-08T10:28:44.751Z,99811.66
2022-12-08T10:31:18.408Z,99789.84
2022-12-08T10:33:48.469Z,99796.09
2022-12-08T10:36:15.611Z,99798.88
2022-12-08T10:38:42.554Z,99783.84
2022-12-08T10:41:09.526Z,99808.81
2022-12-08T10:43:44.203Z,99819.03
2022-12-08T10:46:19.726Z,99828.22
2022-12-08T10:49:13.484Z,99815.94
2022-12-08T10:51:42.820Z,99795.63
2022-12-08T10:54:38.461Z,99813.03
2022-12-08T10:57:05.469Z,99801.19
2022-12-08T10:59:33.852Z,99780.06
2022-12-08T11:02:01.386Z,99803.81
2022-12-08T11:04:36.935Z,99809.28
2022-12-08T11:07:11.658Z,99813.47
2022-12-08T11:09:49.006Z,99824.59
2022-12-08T11:12:17.767Z,99788.78
2022-12-08T11:14:44.760Z,99817.06
2022-12-08T11:17:24.759Z,99803.63
2022-12-08T11:19:56.399Z,99800.16
2022-12-08T11:22:27.865Z,99793.75
2022-12-08T11:25:36.872Z,99781.94
2022-12-08T11:28:05.628Z,99767.06
2022-12-08T11:30:40.224Z,99772.13
2022-12-08T11:33:14.330Z,99776.22
2022-12-08T11:35:45.259Z,99786.91
2022-12-08T11:38:23.108Z,99763.94
2022-12-08T11:41:15.816Z,99772.00
2022-12-08T11:44:06.222Z,99798.38
2022-12-08T11:46:40.667Z,99785.59
2022-12-08T11:49:13.781Z,99780.69
2022-12-08T11:52:05.505Z,99796.34
2022-12-08T11:54:35.374Z,99765.97
2022-12-08T11:57:13.333Z,99787.00
2022-12-08T11:59:46.283Z,99794.78
2022-12-08T12:02:20.478Z,99794.91
2022-12-08T12:04:58.156Z,99794.78
2022-12-08T12:08:02.878Z,99794.00
2022-12-08T12:10:29.836Z,99790.69
2022-12-08T12:13:13.462Z,99788.59
2022-12-08T12:16:04.633Z,99792.16
2022-12-08T12:19:02.186Z,99790.59
2022-12-08T12:21:33.882Z,99800.72
2022-12-08T12:24:06.453Z,99798.50
2022-12-08T12:26:37.763Z,99804.97
2022-12-08T12:29:20.329Z,99799.31
2022-12-08T12:31:52.149Z,99806.19
2022-12-08T12:34:35.218Z,99800.28
2022-12-08T12:37:13.136Z,99755.31
2022-12-08T12:39:55.217Z,99825.06
2022-12-08T12:42:42.625Z,99833.66
2022-12-08T12:45:27.758Z,99826.09
2022-12-08T12:47:58.963Z,99815.06
2022-12-08T12:50:35.222Z,99831.97
2022-12-08T12:53:18.014Z,99827.84
2022-12-08T12:56:03.534Z,99821.16
2022-12-08T12:58:30.699Z,99828.09
2022-12-08T13:01:13.236Z,99824.75
2022-12-08T13:03:47.553Z,99802.94
2022-12-08T13:06:21.734Z,99836.97
2022-12-08T13:08:56.384Z,99820.97
2022-12-08T13:11:25.155Z,99792.72
2022-12-08T13:14:03.948Z,99812.75
2022-12-08T13:16:54.800Z,99831.50
2022-12-08T13:19:22.795Z,99818.97
2022-12-08T13:21:52.256Z,99828.53
2022-12-08T13:24:28.525Z,99830.31
2022-12-08T13:27:06.798Z,99844.13
2022-12-08T13:29:40.600Z,99811.31
2022-12-08T13:32:07.720Z,99833.09
2022-12-08T13:34:51.672Z,99811.50
2022-12-08T13:37:50.746Z,99832.31
2022-12-08T13:40:25.485Z,99837.31
2022-12-08T13:43:19.683Z,99831.44
2022-12-08T13:46:52.533Z,99805.81
2022-12-08T13:57:48.573Z,99822.56
2022-12-08T14:00:20.589Z,99812.09
2022-12-08T14:02:50.219Z,99801.84
2022-12-08T14:05:29.842Z,99825.31
2022-12-08T14:08:51.036Z,99799.41
2022-12-08T14:11:10.020Z,99811.66
2022-12-08T14:13:37.011Z,99829.88
2022-12-08T14:16:04.013Z,99805.41
2022-12-08T14:18:32.063Z,99812.53
2022-12-08T14:21:21.145Z,99846.47
2022-12-08T14:23:48.831Z,99800.63
2022-12-08T14:26:15.985Z,99827.94
2022-12-08T14:28:45.202Z,99819.91
2022-12-08T14:31:16.687Z,99796.75
2022-12-08T14:33:43.803Z,99792.72
2022-12-08T14:36:12.551Z,99843.59
2022-12-08T14:38:39.638Z,99842.16
2022-12-08T14:41:16.780Z,99794.72
2022-12-08T14:43:44.243Z,99863.63
2022-12-08T14:46:22.583Z,99838.84
2022-12-08T14:48:49.816Z,99853.53
2022-12-08T14:51:19.442Z,99853.53
2022-12-08T14:53:52.455Z,99859.63
2022-12-08T14:56:32.158Z,99842.81
2022-12-08T14:59:17.657Z,99863.31
2022-12-08T15:01:46.649Z,99824.22
2022-12-08T15:04:13.833Z,99860.84
2022-12-08T15:06:53.795Z,99862.66
2022-12-08T15:09:41.658Z,99845.72
2022-12-08T15:12:12.109Z,99865.41
2022-12-08T15:15:01.572Z,99857.31
2022-12-08T15:17:41.196Z,99863.97
2022-12-08T15:20:34.551Z,99871.31
2022-12-08T15:23:04.170Z,99877.34
2022-12-08T15:25:32.045Z,99862.19
2022-12-08T15:28:04.951Z,99885.59
2022-12-08T15:30:34.822Z,99864.19
2022-12-08T15:33:02.215Z,99889.13
2022-12-08T15:35:35.963Z,99876.00
2022-12-08T15:38:20.745Z,99884.69
2022-12-08T15:40:48.711Z,99870.53
2022-12-08T15:43:19.465Z,99891.38
2022-12-08T15:45:59.062Z,99881.03
2022-12-08T15:48:30.794Z,99887.28
2022-12-08T15:51:00.733Z,99879.13
2022-12-08T15:53:30.514Z,99854.41
2022-12-08T15:56:26.525Z,99898.28
2022-12-08T15:58:55.231Z,99875.34
2022-12-08T16:01:24.215Z,99899.19
2022-12-08T16:09:36.322Z,99893.16
2022-12-08T16:12:22.411Z,99904.53
2022-12-08T16:17:37.816Z,99889.84
2022-12-08T16:20:16.896Z,99882.16
2022-12-08T16:22:59.253Z,99893.06
2022-12-08T16:26:09.081Z,99856.53
2022-12-08T16:28:53.559Z,99849.31
2022-12-08T16:31:20.059Z,99900.94
2022-12-08T16:33:53.067Z,99893.16
2022-12-08T16:36:20.398Z,99886.06
2022-12-08T16:38:47.499Z,99876.25
2022-12-08T16:41:34.942Z,99901.19
2022-12-08T16:44:04.674Z,99871.91
2022-12-08T16:46:39.880Z,99904.53
2022-12-08T16:49:09.375Z,99914.00
2022-12-08T16:51:36.508Z,99904.31
2022-12-08T16:54:03.682Z,99899.63
2022-12-08T16:56:33.821Z,99893.81
2022-12-08T16:59:01.804Z,99907.53
2022-12-08T17:01:28.846Z,99866.44
2022-12-08T17:04:29.175Z,99901.63
2022-12-08T17:06:43.034Z,99905.88
2022-12-08T17:09:10.046Z,99860.41
2022-12-08T17:11:43.019Z,99901.41
2022-12-08T17:14:12.456Z,99851.09
2022-12-08T17:16:39.768Z,99887.28
2022-12-08T17:19:06.953Z,99888.06
2022-12-08T17:21:34.058Z,99902.94
2022-12-08T17:24:01.224Z,99896.16
2022-12-08T17:26:28.407Z,99903.84
2022-12-08T17:29:02.747Z,99898.50
2022-12-08T17:31:32.128Z,99900.50
2022-12-08T17:34:12.789Z,99899.84
2022-12-08T17:36:42.000Z,99892.38
2022-12-08T17:39:13.430Z,99870.69
2022-12-08T17:41:43.983Z,99900.97
2022-12-08T17:44:17.383Z,99889.16
2022-12-08T17:46:50.684Z,99903.66
2022-12-08T17:49:23.584Z,99895.19
2022-12-08T17:51:54.119Z,99852.66
2022-12-08T17:54:21.932Z,99930.13
2022-12-08T17:56:49.039Z,99920.00
2022-12-08T17:59:16.309Z,99925.00
2022-12-08T18:01:43.963Z,99921.47
2022-12-08T18:04:12.438Z,99924.16
2022-12-08T18:06:40.045Z,99916.53
2022-12-08T18:09:08.065Z,99933.50
2022-12-08T18:11:36.045Z,99937.72
2022-12-08T18:14:09.995Z,99928.13
2022-12-08T18:16:39.728Z,99901.63
2022-12-08T18:19:08.201Z,99936.28
2022-12-08T18:21:36.736Z,99937.94
2022-12-08T18:24:04.684Z,99915.69
2022-12-08T18:26:32.455Z,99920.44
2022-12-08T18:29:00.453Z,99943.72
2022-12-08T18:31:27.853Z,99910.09
2022-12-08T18:33:55.154Z,99949.28
2022-12-08T18:36:24.751Z,99941.28
2022-12-08T18:38:52.909Z,99938.16
2022-12-08T18:41:26.388Z,99921.00
2022-12-08T18:43:55.385Z,99946.72
2022-12-08T18:46:25.674Z,99938.84
2022-12-08T18:48:53.139Z,99934.59
2022-12-08T18:51:22.873Z,99940.28
2022-12-08T18:53:50.638Z,99951.41
2022-12-08T18:56:26.936Z,99938.59
2022-12-08T18:59:01.329Z,99950.63
2022-12-08T19:01:30.359Z,99938.84
2022-12-08T19:04:26.588Z,99904.28
2022-12-08T19:06:46.629Z,99919.34
2022-12-08T19:09:15.419Z,99947.50
2022-12-08T19:11:43.244Z,99943.28
2022-12-08T19:14:12.053Z,99945.06
2022-12-08T19:16:39.335Z,99933.13
2022-12-08T19:19:06.427Z,99946.84
2022-12-08T19:21:34.158Z,99955.44
2022-12-08T19:24:01.840Z,99948.75
2022-12-08T19:26:29.137Z,99933.50
2022-12-08T19:28:57.684Z,99954.66
2022-12-08T19:31:24.990Z,99937.81
2022-12-08T19:33:52.321Z,99942.63
2022-12-08T19:36:22.446Z,99949.09
2022-12-08T19:39:09.134Z,99953.31
2022-12-08T19:41:56.145Z,99937.28
2022-12-08T19:44:47.514Z,99957.75
2022-12-08T19:47:15.463Z,99944.63
2022-12-08T19:49:42.749Z,99950.06
2022-12-08T19:52:10.118Z,99963.56
2022-12-08T19:54:37.150Z,99952.50
2022-12-08T19:57:04.363Z,99956.88
2022-12-08T19:59:31.671Z,99925.00
2022-12-08T20:01:59.065Z,99956.66
2022-12-08T20:04:27.690Z,99955.31
2022-12-08T20:06:56.626Z,99964.22
2022-12-08T20:09:24.819Z,99956.41
2022-12-08T20:11:54.784Z,99953.97
2022-12-08T20:14:23.381Z,99944.50
2022-12-08T20:16:51.104Z,99944.94
2022-12-08T20:19:18.648Z,99959.75
2022-12-08T20:21:46.007Z,99920.34
2022-12-08T20:24:26.646Z,99954.75
2022-12-08T20:26:56.421Z,99949.06
2022-12-08T20:29:23.403Z,99911.09
2022-12-08T20:31:50.559Z,99954.19
2022-12-08T20:34:19.184Z,99965.56
2022-12-08T20:36:46.876Z,99946.38
2022-12-08T20:39:16.963Z,99955.75
2022-12-08T20:41:45.502Z,99964.53
2022-12-08T20:44:12.875Z,99951.50
2022-12-08T20:46:42.763Z,99959.09
2022-12-08T20:49:13.664Z,99972.78
2022-12-08T20:51:41.839Z,99959.09
2022-12-08T20:54:10.205Z,99957.50
2022-12-08T20:56:37.362Z,99955.06
2022-12-08T20:59:04.361Z,99949.25
2022-12-08T21:01:31.795Z,99951.03
2022-12-08T21:03:59.996Z,99947.91
2022-12-08T21:06:38.850Z,99953.81
2022-12-08T21:09:07.333Z,99943.31
2022-12-08T21:11:35.893Z,99959.97
2022-12-08T21:14:03.065Z,99959.06
2022-12-08T21:19:31.262Z,99960.72
2022-12-08T21:21:58.585Z,99954.81
2022-12-08T21:24:30.313Z,99964.28
2022-12-08T21:27:00.813Z,99955.81
2022-12-08T21:29:27.801Z,99955.81
2022-12-08T21:31:57.370Z,99949.91
2022-12-08T21:34:25.782Z,99927.75
2022-12-08T21:36:53.293Z,99934.97
2022-12-08T21:39:20.759Z,99920.94
2022-12-08T21:42:06.284Z,99937.53
2022-12-08T21:44:36.608Z,99943.97
2022-12-08T21:47:05.989Z,99947.78
2022-12-08T21:49:33.352Z,99929.19
2022-12-08T21:52:00.590Z,99945.22
2022-12-08T21:54:27.768Z,99963.59
2022-12-08T21:56:54.999Z,99943.00
2022-12-08T21:59:22.018Z,99963.69
2022-12-08T22:01:49.306Z,99935.53
2022-12-08T22:04:18.990Z,99940.94
2022-12-08T22:06:46.342Z,99958.56
2022-12-08T22:09:15.251Z,99910.22
2022-12-08T22:11:43.954Z,99934.16
2022-12-08T22:14:14.913Z,99965.91
2022-12-08T22:16:43.464Z,99929.03
2022-12-08T22:19:11.168Z,99933.72
2022-12-08T22:21:38.782Z,99952.53
2022-12-08T22:24:06.383Z,99940.53
2022-12-08T22:26:34.081Z,99964.38
2022-12-08T22:29:01.718Z,99960.13
2022-12-08T22:31:28.875Z,99978.41
2022-12-08T22:34:02.543Z,99946.75
2022-12-08T22:36:30.454Z,99964.38
2022-12-08T22:38:57.613Z,99975.97
2022-12-08T22:41:25.056Z,99968.16
2022-12-08T22:43:52.733Z,99965.47
2022-12-08T22:46:26.685Z,99973.91
2022-12-08T22:48:55.229Z,99991.09
2022-12-08T22:51:22.521Z,99983.38
2022-12-08T22:53:50.189Z,99982.63
2022-12-08T22:56:18.700Z,99978.38
2022-12-08T22:58:46.064Z,99929.59
2022-12-08T23:01:29.512Z,99968.91
2022-12-08T23:03:58.156Z,99972.25
2022-12-08T23:06:27.136Z,99986.41
2022-12-08T23:08:54.721Z,99989.16
2022-12-08T23:11:25.241Z,99986.81
2022-12-08T23:13:53.276Z,99983.28
2022-12-08T23:16:32.104Z,99965.88
2022-12-08T23:19:05.585Z,99977.56
2022-12-08T23:21:44.216Z,99946.50
2022-12-08T23:24:13.028Z,99942.03
2022-12-08T23:26:40.233Z,99957.94
2022-12-08T23:29:10.529Z,99979.44
2022-12-08T23:32:07.199Z,99978.31
2022-12-08T23:34:34.880Z,99975.00
2022-12-08T23:37:02.210Z,99978.66
2022-12-08T23:42:31.019Z,99980.13
2022-12-08T23:44:58.416Z,99956.75
2022-12-08T23:47:25.656Z,99978.53
2022-12-08T23:49:52.965Z,99957.59
2022-12-08T23:52:19.943Z,99984.00
2022-12-08T23:54:49.485Z,99985.91
2022-12-08T23:57:17.465Z,99987.25
2022-12-08T23:59:45.026Z,99953.63
